Slavonski Brod, Croatia
Current Conditions -  °F | °C
As of 3:00 PM on Wednesday 22 Oct 2014 (Local Time) from LDOS Reporting Station
Light Rain Light Rain  
Wind Chill: 40°   Ceiling: 2300
Heat Index: 46°   Visibility: 4mi
Dew Point: 45°   Wind: 16mph
Humidity: 93%   Direction: 270°W
Pressure: 29.74"   Gusts: NA
Location:  45.16°N, 18.01°E
Report Text: LDOS 221400Z 27014KT 6000 -RA SCT010 BKN023 OVC030 08/07 Q1007
Loading
Personal Weather Stations






























Interactive Weather Map
Tropical Storm Tracking
New forecast layout! Learn more

10-Day Weather Forecast

Advertisements
Track Severe Weather on mobile